Aeroporto :
LOGIN :

Iscrizione | Disclaimer

   EN    FR    IT 

 










Sommario :    VFR   VFR Marginale   IFR   IFR Intensivo   IFR Molto Intensivo
Visibilità : 
Base nubi : 
>= 8 km
>= 3000ft
5 / 8 km
1000 / 3000 ft
1500m / 5 km
500 / 1000 ft
800 / 1500m
200 / 500 ft
< 800m
< 200 ft
Simboli :   Temporali  Nebbia  Neve Forte  Precipitazioni Forti  Vento > 20 kt
SIGMETs :   Varie  Temporali  Ghiacco  Turbolenza  Onda orograficha  Ceneri Vulcaniche






- Altitudine del aeroporto : 1197 ft
- Codice IATA : SPM


ETAD - Spangdahlem Ab

ULTIMO METAR :
  • 101656Z AUTO 23005KT 9999 BKN039 BKN090 19/10 A3001 RMK AO2 DZE03 SLP144 P0001 T01850103 $

METARs OBSOLETI :
  • 101618Z AUTO 26003KT 9999 SCT060 BKN080 19/12 A3000 RMK AO2 DZE03 SLP142 $
  • 101603Z AUTO 26005KT 9999 FEW024 BKN060 BKN075 18/12 A3001 RMK AO2 DZE03 SLP145 $
  • 101556Z AUTO 26004KT 9999 -DZ FEW024 BKN060 BKN075 18/12 A3001 RMK AO2 DZB28E37RAB37E55DZB55 SLP145 P0000 T01750124 $
  • 101528Z AUTO 26004KT 9999 -DZ BKN055 OVC085 18/11 A3001 RMK AO2 DZB28 SLP145 $
  • 101511Z AUTO 28008KT 9999 FEW049 SCT060 BKN080 18/11 A3001 RMK AO2 SLP145 $
  • 101456Z AUTO 28004KT 9999 FEW032 OVC075 18/11 A3000 RMK AO2 SLP142 60001 T01830111 52009 $

TAF TAF ETAD
Valido dal 10 a 12 ore il 11 a 18 ore UTC


101200Z 1012/1118 27012G18KT 9000 -SHRA BKN030 BKN045 QNH2991INS
BECMG 1013/1014 28012KT 9999 NSW BKN040 QNH2995INS WND 35006KT AFT 1018
BECMG 1100/1101 VRB06KT 9999 FEW035 QNH3014INS
BECMG 1109/1110 35006KT 9999 BKN045 QNH3023INS TX22/1014Z TN11/1103Z



MetMap, La meteo Aeronautica in un colpo d'occhio ! - Copyright ORBIFLY Dicembre 2007 - Disclaimer

ORBIFLY MET'MAP TEAM :

Programmazione e sviluppo : Alexandra Zaïnal
Concezione : Baudouin d'Aumeries
Aiuto per la programmazione : Marc-Olivier Méhu
Supporto tecnico e logistico : Manuel Goepfert
Aiuto per la traduzione : Arnaldo La Scala

Contatto : metmap@orbifly.com




FONTI E CREDITI :

   NOAA